Time,TemperatureF,DewpointF,PressureIn,WindDirection,WindDirectionDegrees,WindSpeedMPH,WindSpeedGustMPH,Humidity,HourlyPrecipIn,Conditions,Clouds,dailyrainin,SoftwareType,DateUTC
2013-10-05 00:00:00,66.5,65.6,30.04,NNE,21,0.0,1.0,97,0.00,,---,0.22,VWS V14.01,2013-10-05 04:00:00,
2013-10-05 00:01:00,66.1,65.5,30.05,SW,217,0.0,0.0,98,0.00,,---,0.00,VWS V14.01,2013-10-05 04:01:00,
2013-10-05 00:02:00,66.0,65.4,30.05,SW,217,0.0,0.0,98,0.00,,---,0.00,VWS V14.01,2013-10-05 04:02:00,
2013-10-05 00:07:00,65.8,65.2,30.05,SW,217,0.0,1.0,98,0.00,,---,0.00,VWS V14.01,2013-10-05 04:07:00,
2013-10-05 00:12:00,65.7,65.1,30.05,SW,217,0.0,1.0,98,0.00,,---,0.00,VWS V14.01,2013-10-05 04:12:00,
2013-10-05 00:17:00,65.6,65.0,30.05,SW,217,0.0,1.0,98,0.00,,---,0.00,VWS V14.01,2013-10-05 04:17:00,
2013-10-05 00:22:00,65.6,65.0,30.05,SW,217,0.0,1.0,98,0.00,,---,0.00,VWS V14.01,2013-10-05 04:22:00,
2013-10-05 00:27:00,65.7,65.1,30.05,SW,217,0.0,1.0,98,0.00,,---,0.00,VWS V14.01,2013-10-05 04:27:00,
2013-10-05 00:30:00,66.3,65.7,30.05,NNE,20,0.0,0.0,98,0.00,,---,0.22,VWS V14.01,2013-10-05 04:30:00,
2013-10-05 00:32:00,65.8,65.2,30.05,SW,217,0.0,0.0,98,0.00,,---,0.00,VWS V14.01,2013-10-05 04:32:00,
2013-10-05 00:37:00,65.9,65.3,30.05,SW,217,0.0,0.0,98,0.00,,---,0.00,VWS V14.01,2013-10-05 04:37:00,
2013-10-05 00:42:00,66.0,65.4,30.05,SW,217,0.0,0.0,98,0.00,,---,0.00,VWS V14.01,2013-10-05 04:42:00,
2013-10-05 00:47:00,66.1,65.5,30.05,SW,217,0.0,0.0,98,0.00,,---,0.00,VWS V14.01,2013-10-05 04:47:00,
2013-10-05 00:52:00,66.1,65.5,30.05,SW,217,0.0,0.0,98,0.00,,---,0.00,VWS V14.01,2013-10-05 04:52:00,
2013-10-05 00:57:00,66.0,65.4,30.05,West,272,0.0,1.0,98,0.00,,---,0.00,VWS V14.01,2013-10-05 04:57:00,
2013-10-05 01:00:00,66.1,65.5,30.05,SW,217,0.0,1.0,98,0.00,,---,0.00,VWS V14.01,2013-10-05 05:00:00,
2013-10-05 01:02:00,65.8,65.2,30.05,WNW,287,0.0,1.0,98,0.00,,---,0.00,VWS V14.01,2013-10-05 05:02:00,
2013-10-05 01:07:00,65.5,64.9,30.05,WNW,300,0.0,1.0,98,0.00,,---,0.00,VWS V14.01,2013-10-05 05:07:00,
2013-10-05 01:12:00,65.5,64.9,30.05,SSW,206,0.0,1.0,98,0.00,,---,0.00,VWS V14.01,2013-10-05 05:12:00,
2013-10-05 01:17:00,65.6,65.0,30.05,SSW,206,0.0,1.0,98,0.00,,---,0.00,VWS V14.01,2013-10-05 05:17:00,
2013-10-05 01:22:00,65.6,65.0,30.05,SSW,206,0.0,1.0,98,0.00,,---,0.00,VWS V14.01,2013-10-05 05:22:00,
2013-10-05 01:27:00,65.7,65.1,30.05,SSW,206,0.0,1.0,98,0.00,,---,0.00,VWS V14.01,2013-10-05 05:27:00,
2013-10-05 01:30:00,65.8,65.2,30.05,SW,217,0.0,1.0,98,0.00,,---,0.00,VWS V14.01,2013-10-05 05:30:00,
2013-10-05 01:32:00,65.8,65.2,30.05,SSW,206,0.0,0.0,98,0.00,,---,0.00,VWS V14.01,2013-10-05 05:32:00,
2013-10-05 01:37:00,65.8,65.2,30.05,SSW,206,0.0,0.0,98,0.00,,---,0.00,VWS V14.01,2013-10-05 05:37:00,
2013-10-05 01:42:00,65.8,65.2,30.05,South,190,0.0,0.0,98,0.00,,---,0.00,VWS V14.01,2013-10-05 05:42:00,
2013-10-05 01:47:00,65.8,65.2,30.06,South,191,0.0,0.0,98,0.00,,---,0.00,VWS V14.01,2013-10-05 05:47:00,
2013-10-05 01:52:00,65.8,65.2,30.06,South,191,0.0,0.0,98,0.00,,---,0.00,VWS V14.01,2013-10-05 05:52:00,
2013-10-05 01:57:00,65.8,65.2,30.06,South,191,0.0,0.0,98,0.00,,---,0.00,VWS V14.01,2013-10-05 05:57:00,
2013-10-05 02:00:00,65.9,65.3,30.05,West,276,0.0,1.0,98,0.00,,---,0.00,VWS V14.01,2013-10-05 06:00:00,
2013-10-05 02:02:00,65.7,65.1,30.06,South,191,0.0,0.0,98,0.00,,---,0.00,VWS V14.01,2013-10-05 06:02:00,
2013-10-05 02:07:00,65.7,65.1,30.06,South,191,0.0,0.0,98,0.00,,---,0.00,VWS V14.01,2013-10-05 06:07:00,
2013-10-05 02:12:00,65.8,65.2,30.06,South,191,0.0,0.0,98,0.00,,---,0.00,VWS V14.01,2013-10-05 06:12:00,
2013-10-05 02:17:00,65.8,65.2,30.06,South,190,0.0,0.0,98,0.01,,---,0.01,VWS V14.01,2013-10-05 06:17:00,
2013-10-05 02:22:00,65.8,65.2,30.06,NE,37,0.0,1.0,98,0.01,,---,0.01,VWS V14.01,2013-10-05 06:22:00,
2013-10-05 02:27:00,65.8,65.2,30.06,NE,37,0.0,1.0,98,0.01,,---,0.01,VWS V14.01,2013-10-05 06:27:00,
2013-10-05 02:30:00,65.7,65.1,30.05,SSW,206,0.0,1.0,98,0.00,,---,0.00,VWS V14.01,2013-10-05 06:30:00,
2013-10-05 02:32:00,65.8,65.2,30.06,NE,37,0.0,0.0,98,0.01,,---,0.01,VWS V14.01,2013-10-05 06:32:00,
2013-10-05 02:37:00,65.8,65.2,30.06,NE,37,0.0,1.0,98,0.01,,---,0.01,VWS V14.01,2013-10-05 06:37:00,
2013-10-05 02:42:00,65.7,65.1,30.06,NE,37,0.0,1.0,98,0.01,,---,0.01,VWS V14.01,2013-10-05 06:42:00,
2013-10-05 02:47:00,65.8,65.5,30.06,NE,38,0.0,1.0,99,0.01,,---,0.01,VWS V14.01,2013-10-05 06:47:00,
2013-10-05 02:52:00,65.8,65.5,30.05,NE,38,0.0,1.0,99,0.01,,---,0.01,VWS V14.01,2013-10-05 06:52:00,
2013-10-05 02:57:00,65.7,65.4,30.05,NE,38,0.0,1.0,99,0.01,,---,0.01,VWS V14.01,2013-10-05 06:57:00,
2013-10-05 03:00:00,65.8,65.2,30.06,South,190,0.0,0.0,98,0.00,,---,0.00,VWS V14.01,2013-10-05 07:00:00,
2013-10-05 03:02:00,65.7,65.4,30.05,NE,38,0.0,0.0,99,0.01,,---,0.01,VWS V14.01,2013-10-05 07:02:00,
2013-10-05 03:07:00,65.7,65.4,30.05,NE,38,0.0,0.0,99,0.01,,---,0.01,VWS V14.01,2013-10-05 07:07:00,
2013-10-05 03:12:00,65.7,65.4,30.05,NE,37,0.0,0.0,99,0.01,,---,0.01,VWS V14.01,2013-10-05 07:12:00,
2013-10-05 03:17:00,65.7,65.4,30.05,NE,37,0.0,1.0,99,0.01,,---,0.01,VWS V14.01,2013-10-05 07:17:00,
2013-10-05 03:22:00,65.6,65.3,30.05,NE,37,0.0,1.0,99,0.01,,---,0.01,VWS V14.01,2013-10-05 07:22:00,
2013-10-05 03:27:00,65.6,65.3,30.05,NE,37,0.0,1.0,99,0.01,,---,0.01,VWS V14.01,2013-10-05 07:27:00,
2013-10-05 03:30:00,65.8,65.2,30.06,NE,37,0.0,1.0,98,0.01,,---,0.01,VWS V14.01,2013-10-05 07:30:00,
2013-10-05 03:32:00,65.6,65.3,30.05,NE,37,0.0,0.0,99,0.00,,---,0.01,VWS V14.01,2013-10-05 07:32:00,
2013-10-05 03:37:00,65.6,65.3,30.05,NE,37,0.0,0.0,99,0.00,,---,0.01,VWS V14.01,2013-10-05 07:37:00,
2013-10-05 03:42:00,65.6,65.3,30.05,NE,37,0.0,0.0,99,0.00,,---,0.01,VWS V14.01,2013-10-05 07:42:00,
2013-10-05 03:47:00,65.6,65.3,30.05,NE,37,0.0,0.0,99,0.00,,---,0.01,VWS V14.01,2013-10-05 07:47:00,
2013-10-05 03:52:00,65.6,65.3,30.05,NE,37,0.0,0.0,99,0.00,,---,0.01,VWS V14.01,2013-10-05 07:52:00,
2013-10-05 03:57:00,65.6,65.3,30.05,NE,37,0.0,0.0,99,0.00,,---,0.01,VWS V14.01,2013-10-05 07:57:00,
2013-10-05 04:00:00,65.7,65.4,30.05,NE,38,0.0,1.0,99,0.01,,---,0.01,VWS V14.01,2013-10-05 08:00:00,
2013-10-05 04:02:00,65.6,65.3,30.05,NE,37,0.0,0.0,99,0.00,,---,0.01,VWS V14.01,2013-10-05 08:02:00,
2013-10-05 04:07:00,65.6,65.3,30.05,NE,37,0.0,0.0,99,0.00,,---,0.01,VWS V14.01,2013-10-05 08:07:00,
2013-10-05 04:12:00,65.6,65.3,30.05,NE,37,0.0,0.0,99,0.00,,---,0.01,VWS V14.01,2013-10-05 08:12:00,
2013-10-05 04:17:00,65.6,65.3,30.06,NE,37,0.0,0.0,99,0.00,,---,0.01,VWS V14.01,2013-10-05 08:17:00,
2013-10-05 04:22:00,65.4,65.1,30.06,NE,37,0.0,1.0,99,0.00,,---,0.01,VWS V14.01,2013-10-05 08:22:00,
2013-10-05 04:27:00,65.4,65.1,30.06,NNW,332,0.0,1.0,99,0.00,,---,0.01,VWS V14.01,2013-10-05 08:27:00,
2013-10-05 04:30:00,65.6,65.3,30.05,NE,37,0.0,1.0,99,0.01,,---,0.01,VWS V14.01,2013-10-05 08:30:00,
2013-10-05 04:32:00,65.2,64.9,30.06,NNW,332,0.0,0.0,99,0.00,,---,0.01,VWS V14.01,2013-10-05 08:32:00,
2013-10-05 04:37:00,65.1,64.8,30.06,NNW,332,0.0,0.0,99,0.00,,---,0.01,VWS V14.01,2013-10-05 08:37:00,
2013-10-05 04:42:00,65.1,64.8,30.06,NNW,332,0.0,0.0,99,0.00,,---,0.01,VWS V14.01,2013-10-05 08:42:00,
2013-10-05 04:47:00,65.0,64.7,30.06,NNW,332,0.0,0.0,99,0.00,,---,0.01,VWS V14.01,2013-10-05 08:47:00,
2013-10-05 04:52:00,65.0,64.7,30.06,NNW,332,0.0,0.0,99,0.00,,---,0.01,VWS V14.01,2013-10-05 08:52:00,
2013-10-05 04:57:00,65.0,64.7,30.06,NNW,332,0.0,0.0,99,0.00,,---,0.01,VWS V14.01,2013-10-05 08:57:00,
2013-10-05 05:00:00,65.6,65.3,30.05,NE,37,0.0,0.0,99,0.00,,---,0.01,VWS V14.01,2013-10-05 09:00:00,
2013-10-05 05:02:00,65.0,64.7,30.06,NNW,333,0.0,0.0,99,0.00,,---,0.01,VWS V14.01,2013-10-05 09:02:00,
2013-10-05 05:07:00,65.0,64.7,30.06,NNW,333,0.0,0.0,99,0.00,,---,0.01,VWS V14.01,2013-10-05 09:07:00,
2013-10-05 05:12:00,65.0,64.7,30.06,NNW,332,0.0,0.0,99,0.00,,---,0.01,VWS V14.01,2013-10-05 09:12:00,
2013-10-05 05:17:00,64.9,64.6,30.07,NNW,332,0.0,0.0,99,0.00,,---,0.01,VWS V14.01,2013-10-05 09:17:00,
2013-10-05 05:22:00,65.0,64.7,30.07,NNW,333,0.0,0.0,99,0.00,,---,0.01,VWS V14.01,2013-10-05 09:22:00,
2013-10-05 05:27:00,64.9,64.6,30.07,NNW,333,0.0,0.0,99,0.00,,---,0.01,VWS V14.01,2013-10-05 09:27:00,
2013-10-05 05:30:00,65.3,65.0,30.06,NNW,332,0.0,1.0,99,0.00,,---,0.01,VWS V14.01,2013-10-05 09:30:00,
2013-10-05 05:32:00,64.9,64.6,30.07,NNW,333,0.0,0.0,99,0.00,,---,0.01,VWS V14.01,2013-10-05 09:32:00,
2013-10-05 05:37:00,64.9,64.6,30.07,NNW,343,0.0,1.0,99,0.00,,---,0.01,VWS V14.01,2013-10-05 09:37:00,
2013-10-05 05:42:00,64.8,64.5,30.07,NNW,344,0.0,1.0,99,0.00,,---,0.01,VWS V14.01,2013-10-05 09:42:00,
2013-10-05 05:47:00,64.9,64.6,30.07,NNW,343,0.0,1.0,99,0.00,,---,0.01,VWS V14.01,2013-10-05 09:47:00,
2013-10-05 05:52:00,64.9,64.6,30.07,NNW,344,0.0,1.0,99,0.00,,---,0.01,VWS V14.01,2013-10-05 09:52:00,
2013-10-05 05:57:00,64.9,64.6,30.07,North,7,0.0,1.0,99,0.00,,---,0.01,VWS V14.01,2013-10-05 09:57:00,
2013-10-05 06:00:00,65.0,64.7,30.07,NNW,332,0.0,0.0,99,0.00,,---,0.01,VWS V14.01,2013-10-05 10:00:00,
2013-10-05 06:02:00,64.9,64.6,30.07,North,7,0.0,0.0,99,0.00,,---,0.01,VWS V14.01,2013-10-05 10:02:00,
2013-10-05 06:07:00,65.0,64.7,30.07,North,7,0.0,0.0,99,0.00,,---,0.01,VWS V14.01,2013-10-05 10:07:00,
2013-10-05 06:12:00,65.1,64.8,30.07,North,7,0.0,1.0,99,0.00,,---,0.01,VWS V14.01,2013-10-05 10:12:00,
2013-10-05 06:17:00,65.1,64.8,30.07,North,7,0.0,1.0,99,0.00,,---,0.01,VWS V14.01,2013-10-05 10:17:00,
2013-10-05 06:22:00,65.1,64.8,30.07,NE,37,0.0,1.0,99,0.00,,---,0.01,VWS V14.01,2013-10-05 10:22:00,
2013-10-05 06:27:00,65.0,64.7,30.08,NE,38,0.0,1.0,99,0.00,,---,0.01,VWS V14.01,2013-10-05 10:27:00,
2013-10-05 06:30:00,64.9,64.6,30.07,NNW,333,0.0,0.0,99,0.00,,---,0.01,VWS V14.01,2013-10-05 10:30:00,
2013-10-05 06:32:00,65.0,64.7,30.08,NE,48,0.0,0.0,99,0.00,,---,0.01,VWS V14.01,2013-10-05 10:32:00,
2013-10-05 06:37:00,65.0,64.7,30.08,NE,37,0.0,1.0,99,0.00,,---,0.01,VWS V14.01,2013-10-05 10:37:00,
2013-10-05 06:42:00,65.0,64.7,30.08,NE,37,0.0,1.0,99,0.00,,---,0.01,VWS V14.01,2013-10-05 10:42:00,
2013-10-05 06:47:00,64.9,64.6,30.08,NE,37,0.0,1.0,99,0.00,,---,0.01,VWS V14.01,2013-10-05 10:47:00,
2013-10-05 06:52:00,64.9,64.6,30.08,NE,37,0.0,1.0,99,0.00,,---,0.01,VWS V14.01,2013-10-05 10:52:00,
2013-10-05 06:57:00,64.9,64.6,30.08,NE,37,0.0,1.0,99,0.00,,---,0.01,VWS V14.01,2013-10-05 10:57:00,
2013-10-05 07:00:00,64.9,64.6,30.07,North,7,0.0,1.0,99,0.00,,---,0.01,VWS V14.01,2013-10-05 11:00:00,
2013-10-05 07:02:00,64.9,64.6,30.08,NE,37,0.0,0.0,99,0.00,,---,0.01,VWS V14.01,2013-10-05 11:02:00,
2013-10-05 07:07:00,64.9,64.6,30.08,NE,37,0.0,0.0,99,0.00,,---,0.01,VWS V14.01,2013-10-05 11:07:00,
2013-10-05 07:12:00,64.9,64.6,30.08,NE,37,0.0,0.0,99,0.00,,---,0.01,VWS V14.01,2013-10-05 11:12:00,
2013-10-05 07:17:00,64.9,64.6,30.08,NE,37,0.0,0.0,99,0.00,,---,0.01,VWS V14.01,2013-10-05 11:17:00,
2013-10-05 07:22:00,64.8,64.5,30.09,NE,37,0.0,0.0,99,0.00,,---,0.01,VWS V14.01,2013-10-05 11:22:00,
2013-10-05 07:27:00,64.8,64.5,30.09,NE,37,0.0,0.0,99,0.00,,---,0.01,VWS V14.01,2013-10-05 11:27:00,
2013-10-05 07:30:00,65.0,64.7,30.08,NE,38,0.0,1.0,99,0.00,,---,0.01,VWS V14.01,2013-10-05 11:30:00,
2013-10-05 07:32:00,64.8,64.5,30.09,NE,37,0.0,0.0,99,0.00,,---,0.01,VWS V14.01,2013-10-05 11:32:00,
2013-10-05 07:37:00,64.8,64.5,30.09,NE,37,0.0,0.0,99,0.00,,---,0.01,VWS V14.01,2013-10-05 11:37:00,
2013-10-05 07:42:00,64.8,64.5,30.09,NE,37,0.0,1.0,99,0.00,,---,0.01,VWS V14.01,2013-10-05 11:42:00,
2013-10-05 07:47:00,64.8,64.5,30.09,NE,37,0.0,1.0,99,0.00,,---,0.01,VWS V14.01,2013-10-05 11:47:00,
2013-10-05 07:52:00,64.7,64.4,30.09,NE,37,1.0,1.0,99,0.00,,---,0.01,VWS V14.01,2013-10-05 11:52:00,
2013-10-05 07:57:00,64.7,64.4,30.09,NE,37,0.0,1.0,99,0.00,,---,0.01,VWS V14.01,2013-10-05 11:57:00,
2013-10-05 08:00:00,64.9,64.6,30.08,NE,37,0.0,1.0,99,0.00,,---,0.01,VWS V14.01,2013-10-05 12:00:00,
2013-10-05 08:02:00,64.7,64.4,30.09,NE,37,0.0,1.0,99,0.00,,---,0.01,VWS V14.01,2013-10-05 12:02:00,
2013-10-05 08:07:00,64.8,64.5,30.09,NE,37,0.0,1.0,99,0.00,,---,0.01,VWS V14.01,2013-10-05 12:07:00,
2013-10-05 08:12:00,64.8,64.5,30.09,NE,37,0.0,1.0,99,0.00,,---,0.01,VWS V14.01,2013-10-05 12:12:00,
2013-10-05 08:17:00,64.9,64.6,30.09,NNE,30,2.0,2.0,99,0.00,,---,0.01,VWS V14.01,2013-10-05 12:17:00,
2013-10-05 08:22:00,64.9,64.6,30.09,NNE,22,0.0,2.0,99,0.00,,---,0.01,VWS V14.01,2013-10-05 12:22:00,
2013-10-05 08:27:00,64.9,64.6,30.09,ESE,121,0.0,2.0,99,0.00,,---,0.01,VWS V14.01,2013-10-05 12:27:00,
2013-10-05 08:30:00,64.8,64.5,30.09,NE,37,0.0,0.0,99,0.00,,---,0.01,VWS V14.01,2013-10-05 12:30:00,
2013-10-05 08:32:00,64.9,64.6,30.09,ESE,121,0.0,1.0,99,0.00,,---,0.01,VWS V14.01,2013-10-05 12:32:00,
2013-10-05 08:37:00,65.0,64.7,30.09,SE,128,0.0,2.0,99,0.00,,---,0.01,VWS V14.01,2013-10-05 12:37:00,
2013-10-05 08:42:00,65.0,64.7,30.09,East,79,0.0,2.0,99,0.00,,---,0.01,VWS V14.01,2013-10-05 12:42:00,
2013-10-05 08:47:00,65.0,64.7,30.10,ESE,102,0.0,2.0,99,0.00,,---,0.01,VWS V14.01,2013-10-05 12:47:00,
2013-10-05 08:52:00,65.0,64.7,30.09,ESE,104,0.0,2.0,99,0.00,,---,0.01,VWS V14.01,2013-10-05 12:52:00,
2013-10-05 08:57:00,65.1,64.8,30.10,SE,127,0.0,2.0,99,0.00,,---,0.01,VWS V14.01,2013-10-05 12:57:00,
2013-10-05 09:00:00,64.7,64.4,30.09,NE,37,0.0,1.0,99,0.00,,---,0.01,VWS V14.01,2013-10-05 13:00:00,
2013-10-05 09:02:00,65.2,64.9,30.10,ESE,105,0.0,3.0,99,0.00,,---,0.01,VWS V14.01,2013-10-05 13:02:00,
2013-10-05 09:07:00,65.2,64.9,30.10,ESE,120,0.0,3.0,99,0.00,,---,0.01,VWS V14.01,2013-10-05 13:07:00,
2013-10-05 09:12:00,65.4,65.1,30.10,ESE,120,0.0,3.0,99,0.00,,---,0.01,VWS V14.01,2013-10-05 13:12:00,
2013-10-05 09:17:00,65.4,65.1,30.10,NNE,28,0.0,3.0,99,0.00,,---,0.01,VWS V14.01,2013-10-05 13:17:00,
2013-10-05 09:22:00,65.4,65.1,30.11,East,89,0.0,3.0,99,0.00,,---,0.01,VWS V14.01,2013-10-05 13:22:00,
2013-10-05 09:27:00,65.5,65.2,30.11,South,169,0.0,3.0,99,0.00,,---,0.01,VWS V14.01,2013-10-05 13:27:00,
2013-10-05 09:30:00,64.9,64.6,30.09,ESE,121,0.0,2.0,99,0.00,,---,0.01,VWS V14.01,2013-10-05 13:30:00,
2013-10-05 09:32:00,65.5,65.2,30.10,ESE,123,0.0,1.0,99,0.00,,---,0.01,VWS V14.01,2013-10-05 13:32:00,
2013-10-05 09:37:00,65.5,65.2,30.10,ESE,122,0.0,1.0,99,0.00,,---,0.01,VWS V14.01,2013-10-05 13:37:00,
2013-10-05 09:42:00,65.5,65.2,30.10,ESE,121,0.0,1.0,99,0.00,,---,0.01,VWS V14.01,2013-10-05 13:42:00,
2013-10-05 09:47:00,65.7,65.4,30.10,East,101,0.0,1.0,99,0.00,,---,0.01,VWS V14.01,2013-10-05 13:47:00,
2013-10-05 09:52:00,65.8,65.5,30.10,East,100,0.0,1.0,99,0.00,,---,0.01,VWS V14.01,2013-10-05 13:52:00,
2013-10-05 09:57:00,65.8,65.5,30.10,East,101,0.0,1.0,99,0.00,,---,0.01,VWS V14.01,2013-10-05 13:57:00,
2013-10-05 10:00:00,65.3,65.0,30.10,ESE,110,2.0,2.0,99,0.00,,---,0.01,VWS V14.01,2013-10-05 14:00:00,
2013-10-05 10:02:00,66.1,65.8,30.10,East,101,0.0,0.0,99,0.00,,---,0.01,VWS V14.01,2013-10-05 14:02:00,
2013-10-05 10:07:00,66.4,66.1,30.10,East,101,0.0,0.0,99,0.00,,---,0.01,VWS V14.01,2013-10-05 14:07:00,
2013-10-05 10:12:00,66.3,66.0,30.10,East,101,0.0,0.0,99,0.00,,---,0.01,VWS V14.01,2013-10-05 14:12:00,
2013-10-05 10:17:00,66.3,66.0,30.10,East,101,0.0,1.0,99,0.00,,---,0.01,VWS V14.01,2013-10-05 14:17:00,
2013-10-05 10:22:00,66.6,66.3,30.10,SW,226,0.0,1.0,99,0.00,,---,0.01,VWS V14.01,2013-10-05 14:22:00,
2013-10-05 10:27:00,66.6,66.3,30.10,West,274,1.0,1.0,99,0.00,,---,0.01,VWS V14.01,2013-10-05 14:27:00,
2013-10-05 10:30:00,65.6,65.3,30.10,South,169,0.0,3.0,99,0.00,,---,0.01,VWS V14.01,2013-10-05 14:30:00,
2013-10-05 10:32:00,66.6,66.0,30.10,West,274,0.0,0.0,98,0.00,,---,0.01,VWS V14.01,2013-10-05 14:32:00,
2013-10-05 10:37:00,66.6,66.0,30.09,East,83,0.0,1.0,98,0.00,,---,0.01,VWS V14.01,2013-10-05 14:37:00,
2013-10-05 10:42:00,66.7,66.1,30.09,SW,230,0.0,1.0,98,0.00,,---,0.01,VWS V14.01,2013-10-05 14:42:00,
2013-10-05 10:47:00,66.8,66.2,30.09,South,190,0.0,1.0,98,0.00,,---,0.01,VWS V14.01,2013-10-05 14:47:00,
2013-10-05 10:52:00,66.8,66.2,30.09,ESE,113,0.0,1.0,98,0.00,,---,0.01,VWS V14.01,2013-10-05 14:52:00,
2013-10-05 10:57:00,66.9,66.3,30.09,ESE,113,0.0,1.0,98,0.00,,---,0.01,VWS V14.01,2013-10-05 14:57:00,
2013-10-05 11:00:00,66.0,65.7,30.10,East,101,0.0,1.0,99,0.00,,---,0.01,VWS V14.01,2013-10-05 15:00:00,
2013-10-05 11:02:00,67.1,66.5,30.09,ESE,113,0.0,0.0,98,0.00,,---,0.01,VWS V14.01,2013-10-05 15:02:00,
2013-10-05 11:07:00,67.4,66.8,30.09,ESE,112,0.0,1.0,98,0.00,,---,0.01,VWS V14.01,2013-10-05 15:07:00,
2013-10-05 11:12:00,67.3,66.7,30.09,SE,124,0.0,1.0,98,0.00,,---,0.01,VWS V14.01,2013-10-05 15:12:00,
2013-10-05 11:17:00,67.7,67.1,30.09,SE,129,0.0,1.0,98,0.00,,---,0.01,VWS V14.01,2013-10-05 15:17:00,
2013-10-05 11:22:00,68.1,67.2,30.08,East,92,0.0,1.0,97,0.00,,---,0.01,VWS V14.01,2013-10-05 15:22:00,
2013-10-05 11:27:00,68.4,67.5,30.08,NNE,22,1.0,1.0,97,0.00,,---,0.01,VWS V14.01,2013-10-05 15:27:00,
2013-10-05 11:30:00,66.6,66.0,30.10,West,274,0.0,1.0,98,0.00,,---,0.01,VWS V14.01,2013-10-05 15:30:00,
2013-10-05 11:32:00,68.5,67.3,30.08,NNE,32,0.0,0.0,96,0.00,,---,0.01,VWS V14.01,2013-10-05 15:32:00,
2013-10-05 11:37:00,69.0,67.5,30.08,East,87,0.0,2.0,95,0.00,,---,0.01,VWS V14.01,2013-10-05 15:37:00,
2013-10-05 11:42:00,69.5,67.7,30.08,NNE,27,3.0,4.0,94,0.00,,---,0.01,VWS V14.01,2013-10-05 15:42:00,
2013-10-05 11:47:00,69.9,68.1,30.08,WNW,302,1.0,4.0,94,0.00,,---,0.01,VWS V14.01,2013-10-05 15:47:00,
2013-10-05 11:52:00,70.8,68.1,30.08,North,8,1.0,4.0,91,0.00,,---,0.01,VWS V14.01,2013-10-05 15:52:00,
2013-10-05 11:57:00,71.2,67.5,30.08,NW,323,0.0,4.0,88,0.00,,---,0.01,VWS V14.01,2013-10-05 15:57:00,
2013-10-05 12:00:00,67.0,66.4,30.09,ESE,113,0.0,1.0,98,0.00,,---,0.01,VWS V14.01,2013-10-05 16:00:00,
2013-10-05 12:02:00,71.1,67.4,30.08,West,279,0.0,2.0,88,0.00,,---,0.01,VWS V14.01,2013-10-05 16:02:00,
2013-10-05 12:07:00,71.5,68.1,30.08,WNW,284,0.0,2.0,89,0.00,,---,0.01,VWS V14.01,2013-10-05 16:07:00,
2013-10-05 12:12:00,72.2,67.8,30.08,WSW,255,0.0,2.0,86,0.00,,---,0.01,VWS V14.01,2013-10-05 16:12:00,
2013-10-05 12:17:00,73.2,69.1,30.07,SSW,194,0.0,2.0,87,0.00,,---,0.01,VWS V14.01,2013-10-05 16:17:00,
2013-10-05 12:22:00,74.1,68.6,30.07,SSE,160,0.0,2.0,83,0.00,,---,0.01,VWS V14.01,2013-10-05 16:22:00,
2013-10-05 12:27:00,73.9,68.1,30.07,North,9,0.0,3.0,82,0.00,,---,0.01,VWS V14.01,2013-10-05 16:27:00,
2013-10-05 12:30:00,68.4,67.2,30.08,NNE,32,0.0,1.0,96,0.00,,---,0.01,VWS V14.01,2013-10-05 16:30:00,
2013-10-05 12:32:00,74.0,69.2,30.07,East,98,2.0,2.0,85,0.00,,---,0.01,VWS V14.01,2013-10-05 16:32:00,
2013-10-05 12:37:00,74.4,67.8,30.06,ENE,77,3.0,4.0,80,0.00,,---,0.01,VWS V14.01,2013-10-05 16:37:00,
2013-10-05 12:42:00,74.9,68.7,30.06,NNW,334,1.0,4.0,81,0.00,,---,0.01,VWS V14.01,2013-10-05 16:42:00,
2013-10-05 12:47:00,75.8,68.8,30.06,ESE,120,0.0,4.0,79,0.00,,---,0.01,VWS V14.01,2013-10-05 16:47:00,
2013-10-05 12:52:00,75.9,68.6,30.06,East,95,0.0,4.0,78,0.00,,---,0.01,VWS V14.01,2013-10-05 16:52:00,
2013-10-05 12:57:00,76.1,68.0,30.06,ESE,122,2.0,4.0,76,0.00,,---,0.01,VWS V14.01,2013-10-05 16:57:00,
2013-10-05 13:00:00,71.1,67.0,30.08,NW,305,2.0,4.0,87,0.00,,---,0.01,VWS V14.01,2013-10-05 17:00:00,
2013-10-05 13:02:00,76.2,67.7,30.05,ESE,120,3.0,3.0,75,0.00,,---,0.01,VWS V14.01,2013-10-05 17:02:00,
2013-10-05 13:07:00,75.9,67.4,30.05,SE,132,0.0,3.0,75,0.00,,---,0.01,VWS V14.01,2013-10-05 17:07:00,
2013-10-05 13:12:00,76.4,67.9,30.05,East,88,3.0,4.0,75,0.00,,---,0.01,VWS V14.01,2013-10-05 17:12:00,
2013-10-05 13:17:00,76.9,68.8,30.04,East,92,2.0,4.0,76,0.00,,---,0.01,VWS V14.01,2013-10-05 17:17:00,
2013-10-05 13:22:00,77.5,68.2,30.04,SSE,168,2.0,4.0,73,0.00,,---,0.01,VWS V14.01,2013-10-05 17:22:00,
2013-10-05 13:27:00,78.2,68.4,30.04,SE,136,1.0,4.0,72,0.00,,---,0.01,VWS V14.01,2013-10-05 17:27:00,
2013-10-05 13:30:00,73.8,68.7,30.07,NE,40,0.0,3.0,84,0.00,,---,0.01,VWS V14.01,2013-10-05 17:30:00,
2013-10-05 13:32:00,78.4,68.6,30.03,South,191,2.0,4.0,72,0.00,,---,0.01,VWS V14.01,2013-10-05 17:32:00,
2013-10-05 13:37:00,78.8,69.0,30.03,SSE,153,1.0,4.0,72,0.00,,---,0.01,VWS V14.01,2013-10-05 17:37:00,
2013-10-05 13:42:00,79.4,67.9,30.02,South,172,3.0,4.0,68,0.00,,---,0.01,VWS V14.01,2013-10-05 17:42:00,
2013-10-05 13:47:00,79.8,68.3,30.02,South,179,1.0,4.0,68,0.00,,---,0.01,VWS V14.01,2013-10-05 17:47:00,
2013-10-05 13:52:00,80.1,68.2,30.02,SW,220,1.0,4.0,67,0.00,,---,0.01,VWS V14.01,2013-10-05 17:52:00,
2013-10-05 13:57:00,80.1,67.7,30.02,East,101,0.0,4.0,66,0.00,,---,0.01,VWS V14.01,2013-10-05 17:57:00,
2013-10-05 14:00:00,76.2,68.5,30.06,NNE,23,0.0,4.0,77,0.00,,---,0.01,VWS V14.01,2013-10-05 18:00:00,
2013-10-05 14:02:00,80.4,67.6,30.02,NNW,335,0.0,1.0,65,0.00,,---,0.01,VWS V14.01,2013-10-05 18:02:00,
2013-10-05 14:07:00,80.6,67.8,30.02,SW,217,1.0,2.0,65,0.00,,---,0.01,VWS V14.01,2013-10-05 18:07:00,
2013-10-05 14:12:00,80.2,67.4,30.02,ESE,121,0.0,2.0,65,0.00,,---,0.01,VWS V14.01,2013-10-05 18:12:00,
2013-10-05 14:17:00,80.0,67.2,30.02,SW,215,0.0,2.0,65,0.00,,---,0.01,VWS V14.01,2013-10-05 18:17:00,
2013-10-05 14:22:00,80.2,67.4,30.02,SSW,207,0.0,2.0,65,0.00,,---,0.01,VWS V14.01,2013-10-05 18:22:00,
2013-10-05 14:27:00,80.7,67.4,30.02,SSW,200,2.0,2.0,64,0.00,,---,0.01,VWS V14.01,2013-10-05 18:27:00,
2013-10-05 14:30:00,78.4,67.8,30.04,South,173,1.0,4.0,70,0.00,,---,0.01,VWS V14.01,2013-10-05 18:30:00,
2013-10-05 14:32:00,80.8,67.5,30.02,SSW,205,0.0,2.0,64,0.00,,---,0.01,VWS V14.01,2013-10-05 18:32:00,
2013-10-05 14:37:00,80.6,67.3,30.02,NW,307,0.0,2.0,64,0.00,,---,0.01,VWS V14.01,2013-10-05 18:37:00,
2013-10-05 14:42:00,80.7,67.8,30.02,WNW,288,0.0,2.0,65,0.00,,---,0.01,VWS V14.01,2013-10-05 18:42:00,
2013-10-05 14:47:00,80.8,67.9,30.01,SE,136,1.0,4.0,65,0.00,,---,0.01,VWS V14.01,2013-10-05 18:47:00,
2013-10-05 14:52:00,80.3,67.0,30.01,ESE,122,0.0,4.0,64,0.00,,---,0.01,VWS V14.01,2013-10-05 18:52:00,
2013-10-05 14:57:00,79.8,67.4,30.01,SSE,165,0.0,4.0,66,0.00,,---,0.01,VWS V14.01,2013-10-05 18:57:00,
2013-10-05 15:00:00,80.2,67.8,30.02,SW,232,0.0,4.0,66,0.00,,---,0.01,VWS V14.01,2013-10-05 19:00:00,
2013-10-05 15:02:00,79.8,67.9,30.01,ESE,107,1.0,1.0,67,0.00,,---,0.01,VWS V14.01,2013-10-05 19:02:00,
2013-10-05 15:07:00,79.9,68.0,30.01,NNE,27,0.0,1.0,67,0.00,,---,0.01,VWS V14.01,2013-10-05 19:07:00,
2013-10-05 15:12:00,79.9,67.5,30.01,East,79,0.0,2.0,66,0.00,,---,0.01,VWS V14.01,2013-10-05 19:12:00,
2013-10-05 15:17:00,80.1,67.7,30.01,ENE,65,2.0,2.0,66,0.00,,---,0.01,VWS V14.01,2013-10-05 19:17:00,
2013-10-05 15:22:00,80.3,67.9,30.00,SSW,192,0.0,2.0,66,0.00,,---,0.01,VWS V14.01,2013-10-05 19:22:00,
2013-10-05 15:27:00,80.8,67.9,30.00,ESE,105,0.0,2.0,65,0.00,,---,0.01,VWS V14.01,2013-10-05 19:27:00,
2013-10-05 15:30:00,80.9,67.6,30.02,NW,316,0.0,2.0,64,0.00,,---,0.01,VWS V14.01,2013-10-05 19:30:00,
2013-10-05 15:32:00,81.3,68.0,30.00,East,83,1.0,2.0,64,0.00,,---,0.01,VWS V14.01,2013-10-05 19:32:00,
2013-10-05 15:37:00,81.5,67.7,30.00,ESE,110,2.0,3.0,63,0.00,,---,0.01,VWS V14.01,2013-10-05 19:37:00,
2013-10-05 15:42:00,81.2,67.9,30.00,West,261,0.0,5.0,64,0.00,,---,0.01,VWS V14.01,2013-10-05 19:42:00,
2013-10-05 15:47:00,81.5,67.7,30.00,SE,132,2.0,5.0,63,0.00,,---,0.01,VWS V14.01,2013-10-05 19:47:00,
2013-10-05 15:52:00,81.0,67.7,30.00,SW,229,1.0,5.0,64,0.00,,---,0.01,VWS V14.01,2013-10-05 19:52:00,
2013-10-05 15:56:00,81.0,68.1,30.00,SSE,165,0.0,5.0,65,0.00,,---,0.01,VWS V14.01,2013-10-05 19:56:00,
2013-10-05 16:00:00,79.7,67.3,30.01,SE,124,1.0,4.0,66,0.00,,---,0.01,VWS V14.01,2013-10-05 20:00:00,
2013-10-05 16:01:00,81.1,68.2,30.00,SSW,212,1.0,2.0,65,0.00,,---,0.01,VWS V14.01,2013-10-05 20:01:00,
2013-10-05 16:06:00,81.2,67.9,30.00,SSW,211,1.0,3.0,64,0.00,,---,0.01,VWS V14.01,2013-10-05 20:06:00,
2013-10-05 16:11:00,81.4,67.6,30.00,SW,219,0.0,3.0,63,0.00,,---,0.01,VWS V14.01,2013-10-05 20:11:00,
2013-10-05 16:16:00,81.1,67.8,30.00,ESE,106,0.0,3.0,64,0.00,,---,0.01,VWS V14.01,2013-10-05 20:16:00,
2013-10-05 16:21:00,80.8,67.9,29.99,ESE,113,0.0,3.0,65,0.00,,---,0.01,VWS V14.01,2013-10-05 20:21:00,
2013-10-05 16:26:00,80.6,67.3,29.99,SSE,165,0.0,3.0,64,0.00,,---,0.01,VWS V14.01,2013-10-05 20:26:00,
2013-10-05 16:30:00,81.2,67.9,30.00,SE,125,0.0,3.0,64,0.00,,---,0.01,VWS V14.01,2013-10-05 20:30:00,
2013-10-05 16:31:00,80.4,67.6,29.99,SSE,158,0.0,0.0,65,0.00,,---,0.01,VWS V14.01,2013-10-05 20:31:00,
2013-10-05 16:36:00,80.2,67.4,29.99,SSE,159,0.0,0.0,65,0.00,,---,0.01,VWS V14.01,2013-10-05 20:36:00,
2013-10-05 16:41:00,80.1,67.7,29.99,SSE,158,0.0,0.0,66,0.00,,---,0.01,VWS V14.01,2013-10-05 20:41:00,
2013-10-05 16:46:00,80.0,67.6,29.99,SSE,160,0.0,0.0,66,0.00,,---,0.01,VWS V14.01,2013-10-05 20:46:00,
2013-10-05 16:51:00,80.0,68.1,29.99,SSE,160,0.0,0.0,67,0.00,,---,0.01,VWS V14.01,2013-10-05 20:51:00,
2013-10-05 16:56:00,79.9,67.5,29.99,SSE,160,0.0,0.0,66,0.00,,---,0.01,VWS V14.01,2013-10-05 20:56:00,
2013-10-05 17:00:00,81.1,68.2,30.00,SE,127,0.0,5.0,65,0.00,,---,0.01,VWS V14.01,2013-10-05 21:00:00,
2013-10-05 17:01:00,79.9,67.5,29.99,SSE,160,0.0,0.0,66,0.00,,---,0.01,VWS V14.01,2013-10-05 21:01:00,
2013-10-05 17:06:00,79.8,67.4,29.99,SSE,160,0.0,0.0,66,0.00,,---,0.01,VWS V14.01,2013-10-05 21:06:00,
2013-10-05 17:11:00,79.7,67.8,29.99,SSE,160,0.0,0.0,67,0.00,,---,0.01,VWS V14.01,2013-10-05 21:11:00,
2013-10-05 17:16:00,79.8,67.9,29.99,SSE,160,0.0,0.0,67,0.00,,---,0.01,VWS V14.01,2013-10-05 21:16:00,
2013-10-05 17:21:00,79.7,67.3,29.99,SSE,160,0.0,0.0,66,0.00,,---,0.01,VWS V14.01,2013-10-05 21:21:00,
2013-10-05 17:26:00,79.5,67.6,29.99,SSE,160,0.0,0.0,67,0.00,,---,0.01,VWS V14.01,2013-10-05 21:26:00,
2013-10-05 17:30:00,80.5,67.7,29.99,SSE,158,0.0,3.0,65,0.00,,---,0.01,VWS V14.01,2013-10-05 21:30:00,
2013-10-05 17:31:00,79.2,67.3,29.99,SSE,160,0.0,0.0,67,0.00,,---,0.01,VWS V14.01,2013-10-05 21:31:00,
2013-10-05 17:36:00,78.9,67.4,29.99,SSE,160,0.0,0.0,68,0.00,,---,0.01,VWS V14.01,2013-10-05 21:36:00,
2013-10-05 17:41:00,78.7,67.3,29.99,SSE,160,0.0,0.0,68,0.00,,---,0.01,VWS V14.01,2013-10-05 21:41:00,
2013-10-05 17:46:00,78.5,67.9,29.99,SSE,160,0.0,0.0,70,0.00,,---,0.01,VWS V14.01,2013-10-05 21:46:00,
2013-10-05 17:51:00,78.3,68.1,29.99,SSE,160,0.0,0.0,71,0.00,,---,0.01,VWS V14.01,2013-10-05 21:51:00,
2013-10-05 17:56:00,78.0,67.8,29.99,SSE,160,0.0,0.0,71,0.00,,---,0.01,VWS V14.01,2013-10-05 21:56:00,
2013-10-05 18:00:00,79.9,68.0,29.99,SSE,160,0.0,0.0,67,0.00,,---,0.01,VWS V14.01,2013-10-05 22:00:00,
2013-10-05 18:01:00,77.7,68.8,30.00,SSE,160,0.0,0.0,74,0.00,,---,0.01,VWS V14.01,2013-10-05 22:01:00,
2013-10-05 18:06:00,77.4,69.2,30.00,SSE,160,0.0,0.0,76,0.00,,---,0.01,VWS V14.01,2013-10-05 22:06:00,
2013-10-05 18:11:00,77.0,68.9,30.00,SSE,160,0.0,0.0,76,0.00,,---,0.01,VWS V14.01,2013-10-05 22:11:00,
2013-10-05 18:16:00,76.7,68.6,30.00,SSW,203,0.0,0.0,76,0.00,,---,0.01,VWS V14.01,2013-10-05 22:16:00,
2013-10-05 18:21:00,76.2,68.5,30.00,SSW,203,0.0,0.0,77,0.00,,---,0.01,VWS V14.01,2013-10-05 22:21:00,
2013-10-05 18:26:00,75.8,68.8,30.00,SSW,203,0.0,0.0,79,0.00,,---,0.01,VWS V14.01,2013-10-05 22:26:00,
2013-10-05 18:30:00,79.3,67.4,29.99,SSE,160,0.0,0.0,67,0.00,,---,0.01,VWS V14.01,2013-10-05 22:30:00,
2013-10-05 18:31:00,75.3,68.0,30.00,SW,223,0.0,1.0,78,0.00,,---,0.01,VWS V14.01,2013-10-05 22:31:00,
2013-10-05 18:36:00,74.9,67.9,29.99,SW,219,0.0,1.0,79,0.00,,---,0.01,VWS V14.01,2013-10-05 22:36:00,
2013-10-05 18:41:00,74.6,68.0,29.99,SSE,162,0.0,1.0,80,0.00,,---,0.01,VWS V14.01,2013-10-05 22:41:00,
2013-10-05 18:46:00,74.3,67.4,30.00,SSE,163,0.0,1.0,79,0.00,,---,0.01,VWS V14.01,2013-10-05 22:46:00,
2013-10-05 18:51:00,74.2,67.3,30.00,SSE,162,0.0,1.0,79,0.00,,---,0.01,VWS V14.01,2013-10-05 22:51:00,
2013-10-05 18:56:00,74.0,67.4,30.00,SSE,163,0.0,1.0,80,0.00,,---,0.01,VWS V14.01,2013-10-05 22:56:00,
2013-10-05 19:00:00,77.8,68.5,30.00,SSE,160,0.0,0.0,73,0.00,,---,0.01,VWS V14.01,2013-10-05 23:00:00,
2013-10-05 19:01:00,73.7,67.2,30.00,SSE,162,0.0,0.0,80,0.00,,---,0.01,VWS V14.01,2013-10-05 23:01:00,
2013-10-05 19:06:00,73.5,67.3,30.00,SSE,162,0.0,0.0,81,0.00,,---,0.01,VWS V14.01,2013-10-05 23:06:00,
2013-10-05 19:11:00,73.3,67.5,30.00,SSE,162,0.0,0.0,82,0.00,,---,0.01,VWS V14.01,2013-10-05 23:11:00,
2013-10-05 19:16:00,73.1,67.6,30.00,SSE,162,0.0,0.0,83,0.00,,---,0.01,VWS V14.01,2013-10-05 23:16:00,
2013-10-05 19:21:00,72.7,67.6,30.00,SSE,162,0.0,0.0,84,0.00,,---,0.01,VWS V14.01,2013-10-05 23:21:00,
2013-10-05 19:26:00,72.3,68.6,30.00,SSE,165,0.0,0.0,88,0.00,,---,0.01,VWS V14.01,2013-10-05 23:26:00,
2013-10-05 19:30:00,75.5,68.2,30.00,SSW,203,0.0,0.0,78,0.00,,---,0.01,VWS V14.01,2013-10-05 23:30:00,
2013-10-05 19:31:00,71.9,68.2,30.00,SSE,165,0.0,0.0,88,0.00,,---,0.01,VWS V14.01,2013-10-05 23:31:00,
2013-10-05 19:36:00,71.9,68.2,30.00,SSW,203,0.0,0.0,88,0.00,,---,0.01,VWS V14.01,2013-10-05 23:36:00,
2013-10-05 19:41:00,71.8,67.7,30.00,SSW,205,0.0,0.0,87,0.00,,---,0.01,VWS V14.01,2013-10-05 23:41:00,
2013-10-05 19:46:00,71.6,67.2,30.00,SW,217,0.0,1.0,86,0.00,,---,0.01,VWS V14.01,2013-10-05 23:46:00,
2013-10-05 19:51:00,71.8,67.4,30.00,SE,128,0.0,1.0,86,0.00,,---,0.01,VWS V14.01,2013-10-05 23:51:00,
2013-10-05 19:56:00,71.9,67.2,30.00,ESE,103,0.0,1.0,85,0.00,,---,0.01,VWS V14.01,2013-10-05 23:56:00,
2013-10-05 20:00:00,73.8,67.2,30.00,SSE,163,0.0,1.0,80,0.00,,---,0.01,VWS V14.01,2013-10-06 00:00:00,
2013-10-05 20:01:00,72.0,67.2,30.00,ESE,102,0.0,0.0,85,0.00,,---,0.01,VWS V14.01,2013-10-06 00:01:00,
2013-10-05 20:06:00,72.0,67.2,30.00,ESE,102,0.0,0.0,85,0.00,,---,0.01,VWS V14.01,2013-10-06 00:06:00,
2013-10-05 20:11:00,71.9,67.2,30.00,East,101,0.0,1.0,85,0.00,,---,0.01,VWS V14.01,2013-10-06 00:11:00,
2013-10-05 20:16:00,72.0,66.9,30.00,East,99,0.0,1.0,84,0.00,,---,0.01,VWS V14.01,2013-10-06 00:16:00,
2013-10-05 20:21:00,72.1,66.7,30.00,East,100,0.0,1.0,83,0.00,,---,0.01,VWS V14.01,2013-10-06 00:21:00,
2013-10-05 20:26:00,72.0,66.6,30.00,East,98,0.0,1.0,83,0.00,,---,0.01,VWS V14.01,2013-10-06 00:26:00,
2013-10-05 20:30:00,72.0,68.3,30.00,SSE,165,0.0,0.0,88,0.00,,---,0.01,VWS V14.01,2013-10-06 00:30:00,
2013-10-05 20:31:00,72.0,66.6,30.00,East,98,0.0,0.0,83,0.00,,---,0.01,VWS V14.01,2013-10-06 00:31:00,
2013-10-05 20:36:00,72.0,66.9,30.00,East,98,0.0,0.0,84,0.00,,---,0.01,VWS V14.01,2013-10-06 00:36:00,
2013-10-05 20:41:00,71.7,66.9,30.00,East,98,0.0,0.0,85,0.00,,---,0.01,VWS V14.01,2013-10-06 00:41:00,
2013-10-05 20:46:00,71.5,66.8,30.01,East,99,0.0,0.0,85,0.00,,---,0.01,VWS V14.01,2013-10-06 00:46:00,
2013-10-05 20:51:00,71.4,66.3,30.01,East,99,0.0,0.0,84,0.00,,---,0.01,VWS V14.01,2013-10-06 00:51:00,
2013-10-05 20:56:00,71.3,66.2,30.01,East,99,0.0,0.0,84,0.00,,---,0.01,VWS V14.01,2013-10-06 00:56:00,
2013-10-05 21:00:00,72.0,67.2,30.00,ESE,102,0.0,1.0,85,0.00,,---,0.01,VWS V14.01,2013-10-06 01:00:00,
2013-10-05 21:01:00,71.3,66.2,30.01,East,99,0.0,0.0,84,0.00,,---,0.01,VWS V14.01,2013-10-06 01:01:00,
2013-10-05 21:06:00,71.2,66.5,30.01,East,99,0.0,1.0,85,0.00,,---,0.01,VWS V14.01,2013-10-06 01:06:00,
2013-10-05 21:11:00,71.0,66.6,30.01,East,98,0.0,1.0,86,0.00,,---,0.01,VWS V14.01,2013-10-06 01:11:00,
2013-10-05 21:16:00,70.7,66.3,30.02,East,98,0.0,1.0,86,0.00,,---,0.01,VWS V14.01,2013-10-06 01:16:00,
2013-10-05 21:21:00,70.5,66.4,30.02,East,98,0.0,1.0,87,0.00,,---,0.01,VWS V14.01,2013-10-06 01:21:00,
2013-10-05 21:26:00,70.1,66.4,30.02,NW,324,0.0,1.0,88,0.00,,---,0.01,VWS V14.01,2013-10-06 01:26:00,
2013-10-05 21:30:00,72.1,66.7,30.00,East,98,0.0,1.0,83,0.00,,---,0.01,VWS V14.01,2013-10-06 01:30:00,
2013-10-05 21:31:00,69.7,66.3,30.03,NW,324,0.0,0.0,89,0.00,,---,0.01,VWS V14.01,2013-10-06 01:31:00,
2013-10-05 21:36:00,69.5,66.1,30.03,WNW,302,0.0,0.0,89,0.00,,---,0.01,VWS V14.01,2013-10-06 01:36:00,
2013-10-05 21:41:00,69.4,66.0,30.03,WNW,302,0.0,0.0,89,0.00,,---,0.01,VWS V14.01,2013-10-06 01:41:00,
2013-10-05 21:46:00,69.3,65.9,30.03,WNW,302,0.0,0.0,89,0.00,,---,0.01,VWS V14.01,2013-10-06 01:46:00,
2013-10-05 21:51:00,69.2,65.8,30.03,WNW,302,0.0,0.0,89,0.00,,---,0.01,VWS V14.01,2013-10-06 01:51:00,
2013-10-05 21:56:00,69.1,65.7,30.03,WNW,302,0.0,0.0,89,0.00,,---,0.01,VWS V14.01,2013-10-06 01:56:00,
2013-10-05 22:00:00,71.3,66.2,30.01,East,99,0.0,0.0,84,0.00,,---,0.01,VWS V14.01,2013-10-06 02:00:00,
2013-10-05 22:01:00,69.1,66.1,30.03,WNW,302,0.0,0.0,90,0.00,,---,0.01,VWS V14.01,2013-10-06 02:01:00,
2013-10-05 22:06:00,69.3,65.9,30.03,WNW,302,0.0,0.0,89,0.00,,---,0.01,VWS V14.01,2013-10-06 02:06:00,
2013-10-05 22:11:00,69.3,66.2,30.03,NW,307,0.0,1.0,90,0.00,,---,0.01,VWS V14.01,2013-10-06 02:11:00,
2013-10-05 22:16:00,69.1,66.1,30.03,NW,307,0.0,1.0,90,0.00,,---,0.01,VWS V14.01,2013-10-06 02:16:00,
2013-10-05 22:21:00,69.0,65.9,30.03,NW,307,0.0,1.0,90,0.00,,---,0.01,VWS V14.01,2013-10-06 02:21:00,
2013-10-05 22:26:00,69.2,66.2,30.02,ENE,73,0.0,2.0,90,0.00,,---,0.01,VWS V14.01,2013-10-06 02:26:00,
2013-10-05 22:30:00,69.9,66.5,30.02,NW,324,0.0,1.0,89,0.00,,---,0.01,VWS V14.01,2013-10-06 02:30:00,
2013-10-05 22:31:00,69.5,66.1,30.02,ENE,74,0.0,0.0,89,0.00,,---,0.01,VWS V14.01,2013-10-06 02:31:00,
2013-10-05 22:36:00,69.6,66.2,30.02,East,80,1.0,1.0,89,0.00,,---,0.01,VWS V14.01,2013-10-06 02:36:00,
2013-10-05 22:41:00,69.6,66.2,30.02,SE,137,0.0,1.0,89,0.00,,---,0.01,VWS V14.01,2013-10-06 02:41:00,
2013-10-05 22:46:00,69.6,66.2,30.02,ESE,117,0.0,1.0,89,0.00,,---,0.01,VWS V14.01,2013-10-06 02:46:00,
2013-10-05 22:51:00,69.4,66.3,30.02,ESE,117,0.0,1.0,90,0.00,,---,0.01,VWS V14.01,2013-10-06 02:51:00,
2013-10-05 22:56:00,69.2,66.2,30.02,ESE,107,0.0,1.0,90,0.00,,---,0.01,VWS V14.01,2013-10-06 02:56:00,
2013-10-05 23:00:00,69.1,65.7,30.03,WNW,302,0.0,0.0,89,0.00,,---,0.01,VWS V14.01,2013-10-06 03:00:00,
2013-10-05 23:01:00,69.1,66.1,30.02,East,89,0.0,1.0,90,0.00,,---,0.01,VWS V14.01,2013-10-06 03:01:00,
2013-10-05 23:06:00,69.2,66.2,30.02,ESE,120,0.0,2.0,90,0.00,,---,0.01,VWS V14.01,2013-10-06 03:06:00,
2013-10-05 23:11:00,69.3,66.2,30.02,East,100,0.0,2.0,90,0.00,,---,0.01,VWS V14.01,2013-10-06 03:11:00,
2013-10-05 23:16:00,69.4,66.3,30.02,ENE,72,0.0,3.0,90,0.00,,---,0.01,VWS V14.01,2013-10-06 03:16:00,
2013-10-05 23:21:00,69.4,66.0,30.02,ENE,67,0.0,3.0,89,0.00,,---,0.01,VWS V14.01,2013-10-06 03:21:00,
2013-10-05 23:26:00,69.6,66.2,30.02,East,99,0.0,3.0,89,0.00,,---,0.01,VWS V14.01,2013-10-06 03:26:00,
2013-10-05 23:30:00,69.4,66.0,30.02,ENE,74,0.0,2.0,89,0.00,,---,0.01,VWS V14.01,2013-10-06 03:30:00,
2013-10-05 23:31:00,69.7,66.0,30.02,North,352,1.0,2.0,88,0.00,,---,0.01,VWS V14.01,2013-10-06 03:31:00,
2013-10-05 23:36:00,69.6,66.2,30.03,NW,326,0.0,2.0,89,0.00,,---,0.01,VWS V14.01,2013-10-06 03:36:00,
2013-10-05 23:41:00,69.6,66.5,30.03,NNW,333,1.0,3.0,90,0.00,,---,0.01,VWS V14.01,2013-10-06 03:41:00,
2013-10-05 23:46:00,69.4,66.7,30.03,NNE,26,1.0,3.0,91,0.01,,---,0.02,VWS V14.01,2013-10-06 03:46:00,
2013-10-05 23:51:00,68.9,66.5,30.02,SSE,154,0.0,3.0,92,0.01,,---,0.02,VWS V14.01,2013-10-06 03:51:00,
2013-10-05 23:56:00,68.5,66.4,30.02,SSE,154,0.0,3.0,93,0.01,,---,0.02,VWS V14.01,2013-10-06 03:56:00,